Latest Weather Observations for Devonport Airport

IDT60801

Issued at 2:32 am EST Sunday 31 July 2016 (issued every 30 minutes, with the page automatically refreshed every 10 minutes)

About weather observations | Map of weather stations | Latest weather observations for TAS | Other Formats
Station Details ID: 091126 Name: DEVONPORT AIRPORT Lat: -41.17 Lon: 146.43 Height: 8.0 m
Data from the previous 72 hours. | See also: Recent months at Devonport Airport
Date/Time
EST
Temp
°C
App
Temp
°C
Dew
Point
°C
Rel
Hum
%
Delta-T
°C
Wind Press
QNH
hPa
Press
MSL
hPa
Rain since
9am
mm
Dir  Spd
km/h
Gust
km/h
Spd
kts
Gust
kts
31/02:30am 12.3 4.8 10.9 91 0.7 NW 41 48 22 26 1005.7 1005.8 3.2
31/02:22am 12.2 4.3 10.8 91 0.7 NW 43 56 23 30 1005.6 1005.7 3.2
31/02:04am 12.4 4.4 11.0 91 0.7 WNW 44 63 24 34 1005.5 1005.6 3.2
31/02:00am 12.5 4.1 11.1 91 0.7 NW 46 63 25 34 1005.4 1005.5 3.2
31/01:45am 12.4 3.2 11.0 91 0.7 NW 50 65 27 35 1005.3 1005.4 3.2
31/01:30am 12.2 1.8 10.8 91 0.7 NNW 56 69 30 37 1005.4 1005.5 3.0
31/01:16am 12.2 3.0 10.8 91 0.7 NW 50 69 27 37 1005.4 1005.5 3.0
31/01:00am 12.4 2.7 10.6 89 0.9 NNW 52 69 28 37 1005.8 1005.9 2.2
31/12:41am 12.9 4.3 10.3 84 1.3 NNW 46 65 25 35 1005.8 1005.9 2.0
31/12:30am 12.7 4.1 10.2 85 1.3 NNW 46 57 25 31 1006.2 1006.3 2.0
31/12:00am 12.2 5.3 10.4 89 0.9 NNW 37 50 20 27 1006.8 1006.9 1.8
 
Date/Time
EST
Temp
°C
App
Temp
°C
Dew
Point
°C
Rel
Hum
%
Delta-T
°C
Wind Press
QNH
hPa
Press
MSL
hPa
Rain since
9am
mm
Dir  Spd
km/h
Gust
km/h
Spd
kts
Gust
kts
30/11:30pm 12.1 5.6 10.5 90 0.8 NNW 35 46 19 25 1007.6 1007.7 1.6
30/11:00pm 12.1 5.6 10.3 89 0.9 NNW 35 46 19 25 1008.1 1008.2 1.4
30/10:30pm 12.1 6.0 10.3 89 0.9 N 33 46 18 25 1008.9 1009.0 1.2
30/10:00pm 12.1 5.5 10.0 87 1.1 N 35 46 19 25 1009.0 1009.1 1.2
30/09:30pm 12.2 4.9 10.1 87 1.1 NNW 39 48 21 26 1009.7 1009.8 1.2
30/09:01pm 12.2 5.0 10.6 90 0.8 N 39 48 21 26 1009.9 1010.0 1.2
30/09:00pm 12.1 4.9 10.5 90 0.8 N 39 48 21 26 1009.8 1009.9 1.2
30/08:49pm 12.2 6.8 10.8 91 0.7 NNW 30 39 16 21 1010.1 1010.2 1.2
30/08:30pm 12.2 7.2 10.8 91 0.7 N 28 35 15 19 1010.3 1010.4 1.2
30/08:05pm 12.1 7.4 10.7 91 0.7 N 26 32 14 17 1010.5 1010.6 1.2
30/08:00pm 12.0 8.4 10.6 91 0.7 NNW 20 30 11 16 1010.6 1010.7 1.2
30/07:30pm 10.7 7.8 9.5 92 0.6 WNW 15 26 8 14 1011.4 1011.5 1.2
30/07:00pm 9.8 7.9 8.9 94 0.4 ENE 9 13 5 7 1011.3 1011.4 1.2
30/06:30pm 9.1 6.5 7.9 92 0.6 WSW 11 15 6 8 1011.9 1012.0 1.2
30/06:00pm 8.8 6.9 7.6 92 0.6 SSE 7 9 4 5 1012.4 1012.5 1.2
30/05:31pm 8.4 5.6 7.0 91 0.7 S 11 13 6 7 1012.6 1012.7 1.2
30/05:30pm 8.4 5.6 7.0 91 0.7 S 11 13 6 7 1012.7 1012.8 1.2
30/05:11pm 8.8 6.4 7.1 89 0.8 ESE 9 15 5 8 1013.0 1013.1 0.4
30/05:00pm 8.9 5.4 7.0 88 0.9 ENE 15 19 8 10 1013.1 1013.2 0.2
30/04:30pm 9.1 5.8 6.5 84 1.2 ENE 13 17 7 9 1013.7 1013.8 0.0
30/04:13pm 9.3 5.1 5.7 78 1.6 NE 17 20 9 11 1013.8 1013.9 0.0
30/04:00pm 9.6 5.3 5.4 75 1.9 NE 17 20 9 11 1013.8 1013.9 0.0
30/03:30pm 9.6 6.8 5.0 73 2.1 NE 9 11 5 6 1014.7 1014.8 0.0
30/03:00pm 9.6 7.1 4.0 68 2.5 ESE 6 9 3 5 1015.2 1015.3 0.0
30/02:30pm 9.5 6.4 3.5 66 2.6 NE 9 11 5 6 1015.1 1015.2 0.0
30/02:00pm 9.7 6.9 3.0 63 2.9 NE 7 9 4 5 1015.6 1015.7 0.0
30/01:30pm 9.5 6.3 3.0 64 2.8 NE 9 13 5 7 1016.3 1016.4 0.0
30/01:00pm 9.4 6.1 2.7 63 2.8 ENE 9 11 5 6 1016.8 1016.9 0.0
30/12:30pm 9.2 5.5 2.1 61 3.0 NNE 11 17 6 9 1017.5 1017.6 0.0
30/12:00pm 9.0 5.2 1.9 61 2.9 NNE 11 13 6 7 1018.1 1018.1 0.0
30/11:30am 9.5 7.1 1.9 59 3.2 ENE 4 9 2 5 1018.9 1018.9 0.0
30/11:00am 8.0 5.2 1.8 65 2.5 SSE 6 9 3 5 1019.2 1019.2 0.0
30/10:30am 7.3 4.4 1.6 67 2.3 S 6 9 3 5 1019.4 1019.4 0.0
30/10:00am 6.2 2.7 1.5 72 1.9 S 9 11 5 6 1019.5 1019.5 0.0
30/09:30am 5.0 1.9 1.5 78 1.4 S 7 9 4 5 1019.5 1019.5 0.0
30/09:00am 3.9 1.0 1.4 84 1.0 WSW 6 7 3 4 1019.7 1019.7 0.0
30/08:30am 2.9 -0.3 1.0 87 0.7 W 7 13 4 7 1019.7 1019.7 0.0
30/08:00am 2.1 -2.7 0.3 88 0.7 S 15 19 8 10 1019.4 1019.4 0.0
30/07:30am 1.2 -3.3 0.0 92 0.4 S 13 15 7 8 1019.4 1019.4 0.0
30/07:00am 1.0 -3.8 0.0 93 0.4 S 15 17 8 9 1019.3 1019.3 0.0
30/06:30am 1.2 -4.1 -0.3 90 0.5 S 17 20 9 11 1019.5 1019.5 0.0
30/06:00am 1.3 -3.6 -0.3 89 0.6 S 15 19 8 10 1019.1 1019.1 0.0
30/05:30am 2.2 -3.0 0.3 87 0.7 SSE 17 19 9 10 1018.7 1018.7 0.0
30/05:00am 2.0 -2.0 0.2 88 0.7 S 11 15 6 8 1019.0 1019.0 0.0
30/04:30am 2.4 -1.0 -0.4 82 1.0 SW 7 11 4 6 1019.1 1019.1 0.0
30/04:00am 3.5 0.2 0.2 79 1.2 SW 7 11 4 6 1018.8 1018.8 0.0
30/03:30am 3.7 -1.1 0.4 79 1.2 WSW 15 17 8 9 1018.8 1018.8 0.0
30/03:00am 4.2 0.2 0.7 78 1.3 WSW 11 11 6 6 1018.5 1018.5 0.0
30/02:30am 4.6 1.1 1.3 79 1.3 W 9 13 5 7 1018.6 1018.6 0.0
30/02:00am 5.1 0.8 1.2 76 1.5 WSW 13 15 7 8 1018.2 1018.2 0.0
30/01:30am 5.0 1.0 0.8 74 1.6 W 11 15 6 8 1018.2 1018.2 0.0
30/01:00am 5.1 1.9 0.7 73 1.7 W 7 13 4 7 1018.1 1018.1 0.0
30/12:30am 6.4 3.4 0.9 68 2.2 WSW 6 7 3 4 1017.8 1017.9 0.0
30/12:00am 7.0 4.4 1.1 66 2.4 WNW 4 7 2 4 1018.0 1018.0 0.0
 
Date/Time
EST
Temp
°C
App
Temp
°C
Dew
Point
°C
Rel
Hum
%
Delta-T
°C
Wind Press
QNH
hPa
Press
MSL
hPa
Rain since
9am
mm
Dir  Spd
km/h
Gust
km/h
Spd
kts
Gust
kts
29/11:30pm 7.5 2.9 1.6 66 2.4 WSW 15 22 8 12 1017.5 1017.6 0.0
29/11:00pm 7.6 2.1 1.9 67 2.3 WSW 20 26 11 14 1017.0 1017.1 0.0
29/10:30pm 8.5 2.9 1.4 61 2.9 W 20 28 11 15 1017.3 1017.4 0.0
29/10:00pm 8.9 2.6 1.3 59 3.1 WSW 24 35 13 19 1016.4 1016.5 0.0
29/09:30pm 8.6 0.8 2.0 63 2.7 WSW 32 44 17 24 1016.1 1016.2 0.0
29/09:00pm 9.7 3.5 2.1 59 3.2 WSW 24 43 13 23 1015.6 1015.7 0.0
29/08:39pm 9.3 2.4 2.4 62 2.9 WSW 28 46 15 25 1015.0 1015.1 0.0
29/08:30pm 9.9 0.9 2.5 60 3.1 WSW 39 52 21 28 1014.4 1014.5 0.0
29/08:18pm 10.1 2.4 2.5 59 3.2 SW 32 48 17 26 1014.5 1014.6 0.0
29/08:00pm 9.9 6.4 3.4 64 2.8 SW 11 26 6 14 1014.7 1014.8 0.0
29/07:30pm 10.2 5.2 3.7 64 2.9 W 19 24 10 13 1013.9 1014.0 0.0
29/07:00pm 10.4 4.6 4.3 66 2.7 W 24 35 13 19 1012.9 1013.0 0.0
29/06:30pm 11.2 3.7 4.7 64 2.9 W 33 43 18 23 1012.2 1012.3 0.0
29/06:00pm 11.7 4.4 5.6 66 2.8 WSW 33 44 18 24 1011.7 1011.8 0.0
29/05:30pm 12.0 5.7 5.9 66 2.9 W 28 54 15 29 1011.2 1011.3 0.0
29/05:00pm 12.3 5.8 6.6 68 2.7 W 30 46 16 25 1010.7 1010.8 0.0
29/04:30pm 12.9 6.4 6.5 65 3.1 W 30 43 16 23 1010.4 1010.5 0.0
29/04:08pm 13.0 5.2 6.6 65 3.1 W 37 56 20 30 1010.1 1010.2 0.0
29/04:00pm 13.0 6.1 7.2 68 2.8 W 33 46 18 25 1010.2 1010.3 0.0
29/03:30pm 13.0 7.5 7.7 70 2.6 W 26 35 14 19 1010.2 1010.3 0.0
29/03:01pm 13.7 5.3 7.2 65 3.2 W 41 59 22 32 1010.0 1010.1 0.0
29/03:00pm 13.7 4.8 7.0 64 3.3 W 43 59 23 32 1009.9 1010.0 0.0
29/02:46pm 14.0 5.1 6.8 62 3.5 W 43 61 23 33 1009.8 1009.9 0.0
29/02:30pm 14.1 5.1 6.5 60 3.7 W 43 57 23 31 1009.4 1009.5 0.0
29/02:06pm 14.2 5.3 6.8 61 3.6 W 43 61 23 33 1009.3 1009.4 0.0
29/02:00pm 14.4 6.1 7.7 64 3.3 WNW 41 52 22 28 1009.5 1009.6 0.0
29/01:33pm 13.9 4.0 6.5 61 3.6 W 48 67 26 36 1009.6 1009.7 0.0
29/01:30pm 13.9 3.1 5.8 58 3.8 W 52 67 28 36 1009.5 1009.6 0.0
29/01:07pm 14.6 4.9 5.9 56 4.2 W 46 70 25 38 1009.5 1009.6 0.0
29/01:00pm 14.9 6.2 6.2 56 4.2 W 41 56 22 30 1009.7 1009.8 0.0
29/12:42pm 13.5 6.3 6.1 61 3.5 W 33 52 18 28 1010.1 1010.2 0.0
29/12:30pm 14.5 6.8 7.3 62 3.5 W 37 52 20 28 1010.3 1010.4 0.0
29/12:00pm 14.1 6.1 7.4 64 3.3 WNW 39 52 21 28 1010.5 1010.6 0.0
29/11:30am 13.1 6.3 9.2 77 2.0 WNW 35 46 19 25 1010.8 1010.9 0.0
29/11:00am 12.8 6.2 8.7 76 2.1 WNW 33 41 18 22 1011.1 1011.2 0.0
29/10:30am 12.7 6.4 9.0 78 1.9 WNW 32 43 17 23 1011.2 1011.3 0.0
29/10:00am 12.1 5.2 8.8 80 1.6 WNW 35 44 19 24 1011.3 1011.4 0.0
29/09:30am 11.7 4.3 8.4 80 1.6 WNW 37 46 20 25 1011.5 1011.6 0.0
29/09:00am 11.5 4.8 8.0 79 1.7 WNW 33 46 18 25 1011.8 1011.9 0.0
29/08:30am 11.1 3.0 7.2 77 1.9 WNW 39 46 21 25 1011.7 1011.8 0.0
29/08:00am 10.7 3.8 7.4 80 1.6 WNW 33 41 18 22 1011.8 1011.9 0.0
29/07:30am 10.6 3.0 7.5 81 1.5 WNW 37 46 20 25 1011.7 1011.8 0.0
29/07:00am 10.7 3.5 7.6 81 1.5 WNW 35 46 19 25 1011.8 1011.9 0.0
29/06:30am 10.6 3.1 7.8 83 1.4 WNW 37 44 20 24 1011.9 1012.0 0.0
29/06:00am 10.5 2.7 8.1 85 1.2 WNW 39 50 21 27 1011.7 1011.8 0.0
29/05:30am 10.4 2.3 8.7 89 0.8 NW 41 48 22 26 1011.8 1011.9 0.0
29/05:00am 10.7 3.2 7.8 82 1.4 WNW 37 46 20 25 1012.1 1012.2 0.0
29/04:30am 10.7 2.4 7.8 82 1.4 WNW 41 50 22 27 1012.1 1012.2 0.0
29/04:00am 10.8 3.7 7.9 82 1.4 WNW 35 46 19 25 1012.4 1012.5 0.0
29/03:30am 10.6 3.9 8.0 84 1.3 WNW 33 43 18 23 1012.6 1012.7 0.0
29/03:00am 11.0 4.3 8.1 82 1.4 WNW 33 46 18 25 1012.9 1013.0 0.0
29/02:30am 10.5 4.8 8.4 87 1.0 WNW 28 35 15 19 1013.3 1013.4 0.0
29/02:00am 10.4 4.4 8.7 89 0.8 NW 30 39 16 21 1013.3 1013.4 0.0
29/01:30am 10.6 4.9 8.5 87 1.0 NW 28 37 15 20 1013.6 1013.7 0.0
29/01:00am 10.6 4.2 8.4 86 1.1 NW 32 39 17 21 1013.8 1013.9 0.0
29/12:34am 10.5 4.8 8.3 86 1.1 WNW 28 37 15 20 1014.1 1014.2 0.0
29/12:30am 10.5 4.4 8.1 85 1.2 WNW 30 39 16 21 1014.2 1014.3 0.0
29/12:00am 10.8 4.2 8.4 85 1.2 WNW 33 43 18 23 1014.3 1014.4 0.0
 
Date/Time
EST
Temp
°C
App
Temp
°C
Dew
Point
°C
Rel
Hum
%
Delta-T
°C
Wind Press
QNH
hPa
Press
MSL
hPa
Rain since
9am
mm
Dir  Spd
km/h
Gust
km/h
Spd
kts
Gust
kts
28/11:52pm 10.6 4.1 8.2 85 1.2 WNW 32 43 17 23 1014.4 1014.5 0.0
28/11:30pm 10.4 4.2 8.0 85 1.2 WNW 30 37 16 20 1014.5 1014.6 0.0
28/11:00pm 10.0 3.8 7.8 86 1.1 WNW 30 41 16 22 1014.7 1014.8 0.0
28/10:30pm 10.1 3.5 7.7 85 1.2 WNW 32 39 17 21 1014.9 1015.0 0.0
28/10:00pm 10.2 4.8 6.5 78 1.7 WNW 24 30 13 16 1015.2 1015.3 0.0
28/09:30pm 9.4 5.4 5.0 74 2.0 W 15 20 8 11 1015.6 1015.7 0.0
28/09:00pm 10.0 4.0 5.2 72 2.2 W 26 33 14 18 1015.2 1015.3 0.0
28/08:30pm 10.1 4.5 5.3 72 2.2 W 24 32 13 17 1015.2 1015.3 0.0
28/08:00pm 10.5 3.9 6.1 74 2.0 W 30 41 16 22 1015.4 1015.5 0.0
28/07:30pm 10.6 3.6 6.2 74 2.0 WNW 32 39 17 21 1015.1 1015.2 0.0
28/07:00pm 10.9 4.1 7.0 77 1.9 WNW 32 43 17 23 1015.0 1015.1 0.0
28/06:30pm 11.0 4.0 6.9 76 1.9 WNW 33 44 18 24 1014.7 1014.8 0.0
28/06:00pm 11.2 4.5 7.3 77 1.9 WNW 32 43 17 23 1014.4 1014.5 0.0
28/05:30pm 11.1 4.1 5.8 70 2.5 W 32 41 17 22 1013.9 1014.0 0.0
28/05:00pm 11.6 5.5 4.8 63 3.1 W 26 41 14 22 1014.2 1014.3 0.0
28/04:30pm 11.9 3.0 4.9 62 3.2 W 41 61 22 33 1014.0 1014.1 0.0
28/04:27pm 12.1 3.9 4.8 61 3.3 W 37 61 20 33 1013.9 1014.0 0.0
28/04:00pm 12.4 6.6 8.1 75 2.1 WNW 28 37 15 20 1013.3 1013.4 0.0
28/03:30pm 13.2 6.2 7.0 66 3.0 WNW 33 44 18 24 1012.8 1012.9 0.0
28/03:00pm 13.7 5.9 6.6 62 3.4 W 37 50 20 27 1012.3 1012.4 0.0
28/02:30pm 13.9 5.0 7.0 63 3.4 W 43 52 23 28 1012.0 1012.1 0.0
28/02:00pm 14.0 5.2 7.3 64 3.3 W 43 54 23 29 1011.7 1011.8 0.0
28/01:30pm 13.4 3.9 6.5 63 3.3 W 46 65 25 35 1012.0 1012.1 0.0
28/01:23pm 13.6 5.0 6.5 62 3.4 W 41 65 22 35 1012.0 1012.1 0.0
28/01:00pm 13.9 5.1 7.9 67 3.0 W 44 57 24 31 1011.9 1012.0 0.0
28/12:30pm 13.3 4.0 7.7 69 2.8 W 46 61 25 33 1012.3 1012.4 0.0
28/12:00pm 13.5 5.1 7.5 67 2.9 W 41 56 22 30 1012.7 1012.8 0.0
28/11:30am 13.5 6.3 7.7 68 2.9 W 35 44 19 24 1012.9 1013.0 0.0
28/11:00am 13.0 5.7 8.7 75 2.2 WNW 37 50 20 27 1013.2 1013.3 0.0
28/10:30am 12.5 5.9 8.6 77 1.9 WNW 33 43 18 23 1012.9 1013.0 0.0
28/10:00am 12.8 6.2 8.5 75 2.1 WNW 33 46 18 25 1012.7 1012.8 0.0
28/09:30am 12.4 6.0 8.5 77 1.9 WNW 32 41 17 22 1012.6 1012.7 0.0
28/09:00am 12.0 5.4 8.5 79 1.7 WNW 33 43 18 23 1012.3 1012.4 0.0
28/08:30am 11.5 5.1 8.4 81 1.5 WNW 32 44 17 24 1012.2 1012.3 0.0
28/08:00am 11.2 4.7 8.1 81 1.5 WNW 32 43 17 23 1011.9 1012.0 0.0
28/07:30am 10.9 3.8 8.0 82 1.4 W 35 44 19 24 1011.5 1011.6 0.0
28/07:00am 11.2 3.4 8.1 81 1.5 WNW 39 48 21 26 1011.4 1011.5 0.0
28/06:30am 11.3 3.9 8.3 82 1.5 WNW 37 48 20 26 1011.2 1011.3 0.0
28/06:00am 11.2 3.8 8.4 83 1.4 WNW 37 46 20 25 1011.1 1011.2 0.0
28/05:30am 11.1 4.1 8.3 83 1.4 WNW 35 43 19 23 1011.1 1011.2 0.0
28/05:00am 10.9 4.3 8.5 85 1.2 WNW 33 43 18 23 1011.1 1011.2 0.0
28/04:30am 10.6 4.1 8.0 84 1.3 WNW 32 41 17 22 1011.4 1011.5 0.0
28/04:00am 10.2 4.4 7.8 85 1.2 WNW 28 37 15 20 1011.7 1011.8 0.0
28/03:30am 9.9 3.9 7.2 83 1.3 WNW 28 33 15 18 1011.6 1011.7 0.0
28/03:00am 9.9 3.8 6.8 81 1.5 WNW 28 33 15 18 1012.2 1012.3 0.0

Other Formats:

Comma delimited format used in spreadsheet applications
http://www.bom.gov.au/fwo/IDT60801/IDT60801.95960.axf

JavaScript Object Notation format (JSON) in row-major order
http://www.bom.gov.au/fwo/IDT60801/IDT60801.95960.json